Flight Track Log - Related Links

Times and Time Zones

All times are in EDT time to prevent confusion due to time zone crossing. See the SWA3937 flight status page for this flight to view local times or setup timezone preferences in your user account.

Time Position Orientation Groundspeed Altitude Reporting Facility
EDT Latitude Longitude Course Direction KTS MPH feet Rate Location/Type
Thu 12:54:44 PM 34.0500 -117.5833 90° East 146 168 2,100  Level Southern California TRACON
Thu 12:56:45 PM 33.9333 -117.5333 160° South 274 315 8,100 2,867 Climbing Southern California TRACON
Thu 12:57:44 PM 33.8692 -117.4897 151° Southeast 298 343 10,700 2,182 Climbing Los Angeles Center
Thu 12:58:46 PM 33.7872 -117.4192 144° Southeast 363 418 12,500 2,371 Climbing Los Angeles Center
Thu 12:59:48 PM 33.7253 -117.2839 119° Southeast 416 479 15,600 2,613 Climbing Los Angeles Center
Thu 01:00:00 PM 33.7167 -117.2299 90° East  Level FlightAware Approximate
Thu 01:00:50 PM 33.7131 -117.1406 96° East 433 498 17,900  Level Los Angeles Center
Thu 01:01:52 PM 33.7000 -116.9883 96° East 455 524 20,300 2,352 Climbing Los Angeles Center
Thu 01:02:55 PM 33.6850 -116.8200 96° East 471 542 22,800 2,160 Climbing Los Angeles Center
Thu 01:03:57 PM 33.6714 -116.6564 96° East 487 560 24,800 1,887 Climbing Los Angeles Center
Thu 01:04:59 PM 33.6575 -116.4886 96° East 500 575 26,700 1,872 Climbing Los Angeles Center
Thu 01:06:02 PM 33.6425 -116.3217 96° East 501 577 28,700 1,887 Climbing Los Angeles Center
Thu 01:07:03 PM 33.6272 -116.1508 96° East 511 588 30,600 1,122 Climbing Los Angeles Center
Thu 01:08:05 PM 33.6233 -115.9803 92° East 511 588 31,000 194 Climbing Los Angeles Center
Thu 01:09:07 PM 33.6200 -115.7806 91° East 500 575 31,000  Level Los Angeles Center
Thu 01:10:10 PM 33.6158 -115.6122 92° East 502 578 31,000  Level Los Angeles Center
Thu 01:11:11 PM 33.6122 -115.4439 91° East 504 580 31,000 -48 Level Los Angeles Center
Thu 01:12:14 PM 33.6064 -115.2758 92° East 505 581 30,900  Descending Los Angeles Center
Thu 01:13:16 PM 33.6031 -115.1108 91° East 495 570 31,000 48 Climbing Los Angeles Center
Thu 01:14:19 PM 33.5978 -114.9483 92° East 489 563 31,000  Level Los Angeles Center
Thu 01:15:20 PM 33.5931 -114.7547 92° East 485 558 31,000  Level Los Angeles Center
Thu 01:16:22 PM 33.5614 -114.5964 103° East 489 563 31,000  Level Los Angeles Center
Thu 01:16:51 PM 33.5506 -114.5156 99° East 488 562 31,000 -1,385 Level Albuquerque Center
Thu 01:17:53 PM 33.5189 -114.3581 104° East 488 562 28,900 -2,081 Descending Albuquerque Center
Thu 01:18:55 PM 33.4883 -114.2036 103° East 480 552 26,700 -1,872 Descending Albuquerque Center
Thu 01:19:58 PM 33.4592 -114.0575 103° East 460 529 25,000 -816 Descending Albuquerque Center
Thu 01:21:00 PM 33.4306 -113.9156 104° East 444 511 25,000  Level Albuquerque Center
Thu 01:22:02 PM 33.4025 -113.7758 103° East 434 499 25,000 -387 Level Albuquerque Center
Thu 01:23:04 PM 33.3675 -113.6056 104° East 437 503 24,200 -1,452 Descending Albuquerque Center
Thu 01:24:06 PM 33.3400 -113.4664 103° East 433 498 22,000 -1,694 Descending Albuquerque Center
Thu 01:25:08 PM 33.3111 -113.3331 105° East 420 483 20,700 -1,645 Descending Albuquerque Center
Thu 01:26:10 PM 33.2844 -113.2028 104° East 409 471 18,600 -1,790 Descending Albuquerque Center
Thu 01:27:12 PM 33.2742 -113.0761 96° East 386 444 17,000 -774 Descending Albuquerque Center
Thu 01:28:14 PM 33.2775 -112.9539 88° East 369 425 17,000 -355 Level Albuquerque Center
Thu 01:30:18 PM 33.2831 -112.7033 88° East 349 402 15,900 -871 Descending Albuquerque Center
Thu 01:31:20 PM 33.2847 -112.5872 89° East 337 388 14,300 -1,452 Descending Albuquerque Center
Thu 01:32:22 PM 33.2889 -112.4931 87° East 318 366 12,900 -1,403 Descending Albuquerque Center
Thu 01:33:24 PM 33.2908 -112.3939 89° East 303 349 11,400 -1,016 Descending Albuquerque Center
Thu 01:34:26 PM 33.2961 -112.2972 86° East 294 338 10,800 -823 Descending Albuquerque Center
Thu 01:35:28 PM 33.3028 -112.2069 85° East 277 319 9,700 -871 Descending Albuquerque Center
Thu 01:36:30 PM 33.3097 -112.1081 85° East 249 287 9,000 -726 Descending Albuquerque Center
Thu 01:37:32 PM 33.3256 -112.0386 75° East 220 253 8,200 -919 Descending Albuquerque Center
Thu 01:38:34 PM 33.3428 -111.9658 74° East 227 261 7,100 -919 Descending Albuquerque Center
Thu 01:39:36 PM 33.3453 -111.8931 88° East 223 257 6,300 -823 Descending Albuquerque Center
Thu 01:40:38 PM 33.3617 -111.8403 70° East 190 219 5,400 -1,065 Descending Albuquerque Center
Thu 01:41:40 PM 33.4186 -111.8556 347° North 196 226 4,100 -1,161 Descending Albuquerque Center
Thu 01:42:42 PM 33.4289 -111.9117 282° West 178 205 3,000 -1,104 Descending Albuquerque Center
Thu 01:43:45 PM 33.4294 -111.9611 271° West 153 176 1,800 -912 Descending Albuquerque Center
Thu 01:44:47 PM 33.4275 -112.0175 268° West 149 171 1,100 -677 Descending Albuquerque Center

Login

Don't have an account? Register now (free) for customized features, flight alerts, and more!